sensor_id;sensor_type;location;lat;lon;timestamp;temperature;humidity
54126;DHT22;40360;52.992;6.796;2022-08-19T00:00:02;14.80;99.90
54126;DHT22;40360;52.992;6.796;2022-08-19T00:02:28;14.70;99.90
54126;DHT22;40360;52.992;6.796;2022-08-19T00:04:54;14.70;99.90
54126;DHT22;40360;52.992;6.796;2022-08-19T00:07:20;14.70;99.90
54126;DHT22;40360;52.992;6.796;2022-08-19T00:09:45;14.70;99.90
54126;DHT22;40360;52.992;6.796;2022-08-19T00:12:11;14.70;99.90
54126;DHT22;40360;52.992;6.796;2022-08-19T00:14:37;14.60;99.90
54126;DHT22;40360;52.992;6.796;2022-08-19T00:17:05;14.60;99.90
54126;DHT22;40360;52.992;6.796;2022-08-19T00:19:32;14.70;99.90
54126;DHT22;40360;52.992;6.796;2022-08-19T00:21:58;14.70;99.90
54126;DHT22;40360;52.992;6.796;2022-08-19T00:24:24;14.60;99.90
54126;DHT22;40360;52.992;6.796;2022-08-19T00:26:50;14.60;99.90
54126;DHT22;40360;52.992;6.796;2022-08-19T00:29:18;14.60;99.90
54126;DHT22;40360;52.992;6.796;2022-08-19T00:31:44;14.60;99.90
54126;DHT22;40360;52.992;6.796;2022-08-19T00:34:12;14.80;99.90
54126;DHT22;40360;52.992;6.796;2022-08-19T00:36:38;14.60;99.90
54126;DHT22;40360;52.992;6.796;2022-08-19T00:39:04;14.60;99.90
54126;DHT22;40360;52.992;6.796;2022-08-19T00:41:30;14.50;99.90
54126;DHT22;40360;52.992;6.796;2022-08-19T00:44:05;14.50;99.90
54126;DHT22;40360;52.992;6.796;2022-08-19T00:46:33;14.40;99.90
54126;DHT22;40360;52.992;6.796;2022-08-19T00:49:00;14.40;99.90
54126;DHT22;40360;52.992;6.796;2022-08-19T00:51:27;14.40;99.90
54126;DHT22;40360;52.992;6.796;2022-08-19T00:53:57;14.40;99.90
54126;DHT22;40360;52.992;6.796;2022-08-19T00:56:24;14.40;99.90
54126;DHT22;40360;52.992;6.796;2022-08-19T00:58:54;14.60;99.90
54126;DHT22;40360;52.992;6.796;2022-08-19T01:01:20;14.30;99.90
54126;DHT22;40360;52.992;6.796;2022-08-19T01:03:45;14.30;99.90
54126;DHT22;40360;52.992;6.796;2022-08-19T01:06:11;14.30;99.90
54126;DHT22;40360;52.992;6.796;2022-08-19T01:08:36;14.30;99.90
54126;DHT22;40360;52.992;6.796;2022-08-19T01:11:02;14.20;99.90
54126;DHT22;40360;52.992;6.796;2022-08-19T01:13:32;14.20;99.90
54126;DHT22;40360;52.992;6.796;2022-08-19T01:16:05;14.20;99.90
54126;DHT22;40360;52.992;6.796;2022-08-19T01:18:32;14.20;99.90
54126;DHT22;40360;52.992;6.796;2022-08-19T01:21:09;14.20;99.90
54126;DHT22;40360;52.992;6.796;2022-08-19T01:23:36;14.10;99.90
54126;DHT22;40360;52.992;6.796;2022-08-19T01:26:20;14.10;99.90
54126;DHT22;40360;52.992;6.796;2022-08-19T01:28:48;14.10;99.90
54126;DHT22;40360;52.992;6.796;2022-08-19T01:31:24;14.00;99.90
54126;DHT22;40360;52.992;6.796;2022-08-19T01:33:52;14.00;99.90
54126;DHT22;40360;52.992;6.796;2022-08-19T01:36:25;13.90;99.90
54126;DHT22;40360;52.992;6.796;2022-08-19T01:38:52;13.90;99.90
54126;DHT22;40360;52.992;6.796;2022-08-19T01:41:18;13.90;99.90
54126;DHT22;40360;52.992;6.796;2022-08-19T01:43:44;13.90;99.90
54126;DHT22;40360;52.992;6.796;2022-08-19T01:46:10;13.80;99.90
54126;DHT22;40360;52.992;6.796;2022-08-19T01:48:40;13.70;99.90
54126;DHT22;40360;52.992;6.796;2022-08-19T01:51:07;13.70;99.90
54126;DHT22;40360;52.992;6.796;2022-08-19T01:53:32;13.70;99.90
54126;DHT22;40360;52.992;6.796;2022-08-19T01:55:58;13.80;99.90
54126;DHT22;40360;52.992;6.796;2022-08-19T01:58:27;14.10;99.90
54126;DHT22;40360;52.992;6.796;2022-08-19T02:00:55;13.90;99.90
54126;DHT22;40360;52.992;6.796;2022-08-19T02:03:21;13.90;99.90
54126;DHT22;40360;52.992;6.796;2022-08-19T02:05:53;13.90;99.90
54126;DHT22;40360;52.992;6.796;2022-08-19T02:08:18;13.80;99.90
54126;DHT22;40360;52.992;6.796;2022-08-19T02:10:44;13.80;99.90
54126;DHT22;40360;52.992;6.796;2022-08-19T02:13:12;13.70;99.90
54126;DHT22;40360;52.992;6.796;2022-08-19T02:15:38;13.60;99.90
54126;DHT22;40360;52.992;6.796;2022-08-19T02:18:05;13.60;99.90
54126;DHT22;40360;52.992;6.796;2022-08-19T02:20:31;13.60;99.90
54126;DHT22;40360;52.992;6.796;2022-08-19T02:22:57;13.60;99.90
54126;DHT22;40360;52.992;6.796;2022-08-19T02:25:22;13.70;99.90
54126;DHT22;40360;52.992;6.796;2022-08-19T02:27:48;13.70;99.90
54126;DHT22;40360;52.992;6.796;2022-08-19T02:30:15;13.70;99.90
54126;DHT22;40360;52.992;6.796;2022-08-19T02:32:41;13.70;99.90
54126;DHT22;40360;52.992;6.796;2022-08-19T02:35:07;13.70;99.90
54126;DHT22;40360;52.992;6.796;2022-08-19T02:37:33;13.70;99.90
54126;DHT22;40360;52.992;6.796;2022-08-19T02:40:18;13.70;99.90
54126;DHT22;40360;52.992;6.796;2022-08-19T02:42:44;13.70;99.90
54126;DHT22;40360;52.992;6.796;2022-08-19T02:45:12;13.60;99.90
54126;DHT22;40360;52.992;6.796;2022-08-19T02:47:37;13.50;99.90
54126;DHT22;40360;52.992;6.796;2022-08-19T02:50:04;13.50;99.90
54126;DHT22;40360;52.992;6.796;2022-08-19T02:52:32;13.50;99.90
54126;DHT22;40360;52.992;6.796;2022-08-19T02:54:57;13.50;99.90
54126;DHT22;40360;52.992;6.796;2022-08-19T02:57:24;13.50;99.90
54126;DHT22;40360;52.992;6.796;2022-08-19T02:59:50;13.50;99.90
54126;DHT22;40360;52.992;6.796;2022-08-19T03:02:16;13.60;99.90
54126;DHT22;40360;52.992;6.796;2022-08-19T03:04:42;13.60;99.90
54126;DHT22;40360;52.992;6.796;2022-08-19T03:07:09;13.60;99.90
54126;DHT22;40360;52.992;6.796;2022-08-19T03:09:36;13.60;99.90
54126;DHT22;40360;52.992;6.796;2022-08-19T03:12:05;13.60;99.90
54126;DHT22;40360;52.992;6.796;2022-08-19T03:14:32;13.60;99.90
54126;DHT22;40360;52.992;6.796;2022-08-19T03:16:58;13.60;99.90
54126;DHT22;40360;52.992;6.796;2022-08-19T03:19:24;13.60;99.90
54126;DHT22;40360;52.992;6.796;2022-08-19T03:21:50;13.60;99.90
54126;DHT22;40360;52.992;6.796;2022-08-19T03:24:17;13.60;99.90
54126;DHT22;40360;52.992;6.796;2022-08-19T03:26:46;13.60;99.90
54126;DHT22;40360;52.992;6.796;2022-08-19T03:29:13;13.60;99.90
54126;DHT22;40360;52.992;6.796;2022-08-19T03:31:40;13.70;99.90
54126;DHT22;40360;52.992;6.796;2022-08-19T03:34:06;13.70;99.90
54126;DHT22;40360;52.992;6.796;2022-08-19T03:36:32;13.60;99.90
54126;DHT22;40360;52.992;6.796;2022-08-19T03:39:00;13.50;99.90
54126;DHT22;40360;52.992;6.796;2022-08-19T03:41:28;13.50;99.90
54126;DHT22;40360;52.992;6.796;2022-08-19T03:43:54;13.40;99.90
54126;DHT22;40360;52.992;6.796;2022-08-19T03:46:24;13.40;99.90
54126;DHT22;40360;52.992;6.796;2022-08-19T03:48:52;13.40;99.90
54126;DHT22;40360;52.992;6.796;2022-08-19T03:51:27;13.30;99.90
54126;DHT22;40360;52.992;6.796;2022-08-19T03:53:54;13.40;99.90
54126;DHT22;40360;52.992;6.796;2022-08-19T03:56:21;13.40;99.90
54126;DHT22;40360;52.992;6.796;2022-08-19T03:58:47;13.80;99.90
54126;DHT22;40360;52.992;6.796;2022-08-19T04:01:19;13.60;99.90
54126;DHT22;40360;52.992;6.796;2022-08-19T04:03:45;13.60;99.90
54126;DHT22;40360;52.992;6.796;2022-08-19T04:06:20;13.60;99.90
54126;DHT22;40360;52.992;6.796;2022-08-19T04:08:47;13.60;99.90
54126;DHT22;40360;52.992;6.796;2022-08-19T04:11:16;13.60;99.90
54126;DHT22;40360;52.992;6.796;2022-08-19T04:13:42;13.60;99.90
54126;DHT22;40360;52.992;6.796;2022-08-19T04:16:11;13.60;99.90
54126;DHT22;40360;52.992;6.796;2022-08-19T04:18:38;13.70;99.90
54126;DHT22;40360;52.992;6.796;2022-08-19T04:21:04;13.80;99.90
54126;DHT22;40360;52.992;6.796;2022-08-19T04:23:30;13.70;99.90
54126;DHT22;40360;52.992;6.796;2022-08-19T04:25:57;13.70;99.90
54126;DHT22;40360;52.992;6.796;2022-08-19T04:28:23;13.60;99.90
54126;DHT22;40360;52.992;6.796;2022-08-19T04:30:52;13.40;99.90
54126;DHT22;40360;52.992;6.796;2022-08-19T04:33:21;13.40;99.90
54126;DHT22;40360;52.992;6.796;2022-08-19T04:35:49;13.30;99.90
54126;DHT22;40360;52.992;6.796;2022-08-19T04:38:18;13.30;99.90
54126;DHT22;40360;52.992;6.796;2022-08-19T04:40:49;13.30;99.90
54126;DHT22;40360;52.992;6.796;2022-08-19T04:43:35;13.30;99.90
54126;DHT22;40360;52.992;6.796;2022-08-19T04:46:11;13.40;99.90
54126;DHT22;40360;52.992;6.796;2022-08-19T04:48:38;13.50;99.90
54126;DHT22;40360;52.992;6.796;2022-08-19T04:51:10;13.50;99.90
54126;DHT22;40360;52.992;6.796;2022-08-19T04:53:38;13.50;99.90
54126;DHT22;40360;52.992;6.796;2022-08-19T04:56:15;13.50;99.90
54126;DHT22;40360;52.992;6.796;2022-08-19T04:58:43;13.40;99.90
54126;DHT22;40360;52.992;6.796;2022-08-19T05:01:12;13.40;99.90
54126;DHT22;40360;52.992;6.796;2022-08-19T05:20:45;13.50;99.90
54126;DHT22;40360;52.992;6.796;2022-08-19T05:23:29;13.60;99.90
54126;DHT22;40360;52.992;6.796;2022-08-19T05:25:55;13.60;99.90
54126;DHT22;40360;52.992;6.796;2022-08-19T05:28:21;13.70;99.90
54126;DHT22;40360;52.992;6.796;2022-08-19T05:30:46;13.80;99.90
54126;DHT22;40360;52.992;6.796;2022-08-19T05:33:13;13.90;99.90
54126;DHT22;40360;52.992;6.796;2022-08-19T05:35:39;14.00;99.90
54126;DHT22;40360;52.992;6.796;2022-08-19T05:38:07;14.10;99.90
54126;DHT22;40360;52.992;6.796;2022-08-19T05:40:35;14.20;99.90
54126;DHT22;40360;52.992;6.796;2022-08-19T05:43:02;14.30;99.90
54126;DHT22;40360;52.992;6.796;2022-08-19T05:45:28;14.40;99.90
54126;DHT22;40360;52.992;6.796;2022-08-19T05:47:54;14.50;99.90
54126;DHT22;40360;52.992;6.796;2022-08-19T05:50:20;14.60;99.90
54126;DHT22;40360;52.992;6.796;2022-08-19T05:52:46;14.80;99.90
54126;DHT22;40360;52.992;6.796;2022-08-19T05:55:12;14.90;99.90
54126;DHT22;40360;52.992;6.796;2022-08-19T05:57:38;15.80;99.90
54126;DHT22;40360;52.992;6.796;2022-08-19T06:00:06;15.30;99.90
54126;DHT22;40360;52.992;6.796;2022-08-19T06:02:36;15.40;99.90
54126;DHT22;40360;52.992;6.796;2022-08-19T06:05:04;15.60;99.90
54126;DHT22;40360;52.992;6.796;2022-08-19T06:07:32;15.70;99.90
54126;DHT22;40360;52.992;6.796;2022-08-19T06:09:58;15.80;99.90
54126;DHT22;40360;52.992;6.796;2022-08-19T06:12:24;16.00;99.90
54126;DHT22;40360;52.992;6.796;2022-08-19T06:14:58;16.10;99.90
54126;DHT22;40360;52.992;6.796;2022-08-19T06:17:24;16.20;99.90
54126;DHT22;40360;52.992;6.796;2022-08-19T06:19:51;16.40;99.90
54126;DHT22;40360;52.992;6.796;2022-08-19T06:22:17;16.50;99.90
54126;DHT22;40360;52.992;6.796;2022-08-19T06:24:42;16.60;99.90
54126;DHT22;40360;52.992;6.796;2022-08-19T06:27:08;16.70;99.90
54126;DHT22;40360;52.992;6.796;2022-08-19T06:29:34;16.90;99.90
54126;DHT22;40360;52.992;6.796;2022-08-19T06:32:01;17.00;99.90
54126;DHT22;40360;52.992;6.796;2022-08-19T06:34:30;17.10;99.90
54126;DHT22;40360;52.992;6.796;2022-08-19T06:36:58;17.20;99.90
54126;DHT22;40360;52.992;6.796;2022-08-19T06:39:28;17.30;99.90
54126;DHT22;40360;52.992;6.796;2022-08-19T06:41:56;17.40;99.90
54126;DHT22;40360;52.992;6.796;2022-08-19T06:44:25;17.70;99.90
54126;DHT22;40360;52.992;6.796;2022-08-19T06:46:52;17.80;99.90
54126;DHT22;40360;52.992;6.796;2022-08-19T06:49:18;17.70;99.90
54126;DHT22;40360;52.992;6.796;2022-08-19T06:51:46;17.90;99.90
54126;DHT22;40360;52.992;6.796;2022-08-19T06:54:13;18.00;99.90
54126;DHT22;40360;52.992;6.796;2022-08-19T06:56:39;18.10;99.90
54126;DHT22;40360;52.992;6.796;2022-08-19T06:59:10;18.20;99.90
54126;DHT22;40360;52.992;6.796;2022-08-19T07:01:43;18.30;99.90
54126;DHT22;40360;52.992;6.796;2022-08-19T07:04:14;18.40;99.90
54126;DHT22;40360;52.992;6.796;2022-08-19T07:06:41;18.50;99.90
54126;DHT22;40360;52.992;6.796;2022-08-19T07:09:08;18.60;99.90
54126;DHT22;40360;52.992;6.796;2022-08-19T07:11:34;18.90;99.90
54126;DHT22;40360;52.992;6.796;2022-08-19T07:14:00;18.90;99.90
54126;DHT22;40360;52.992;6.796;2022-08-19T07:16:26;19.00;99.90
54126;DHT22;40360;52.992;6.796;2022-08-19T07:18:53;19.10;99.90
54126;DHT22;40360;52.992;6.796;2022-08-19T07:21:21;19.20;99.90
54126;DHT22;40360;52.992;6.796;2022-08-19T07:23:48;20.00;99.90
54126;DHT22;40360;52.992;6.796;2022-08-19T07:26:17;19.40;99.90
54126;DHT22;40360;52.992;6.796;2022-08-19T07:28:45;19.50;99.90
54126;DHT22;40360;52.992;6.796;2022-08-19T07:31:19;19.70;99.90
54126;DHT22;40360;52.992;6.796;2022-08-19T07:33:47;19.80;99.90
54126;DHT22;40360;52.992;6.796;2022-08-19T07:36:15;19.90;99.90
54126;DHT22;40360;52.992;6.796;2022-08-19T07:38:44;20.00;99.90
54126;DHT22;40360;52.992;6.796;2022-08-19T07:41:22;20.10;99.90
54126;DHT22;40360;52.992;6.796;2022-08-19T07:43:49;20.20;99.90
54126;DHT22;40360;52.992;6.796;2022-08-19T07:46:15;20.40;99.90
54126;DHT22;40360;52.992;6.796;2022-08-19T07:48:43;20.50;99.90
54126;DHT22;40360;52.992;6.796;2022-08-19T07:51:16;20.60;99.90
54126;DHT22;40360;52.992;6.796;2022-08-19T07:53:42;20.60;99.90
54126;DHT22;40360;52.992;6.796;2022-08-19T07:56:10;20.80;99.90
54126;DHT22;40360;52.992;6.796;2022-08-19T07:58:40;20.90;99.90
54126;DHT22;40360;52.992;6.796;2022-08-19T08:01:07;20.80;99.90
54126;DHT22;40360;52.992;6.796;2022-08-19T08:03:33;21.10;99.90
54126;DHT22;40360;52.992;6.796;2022-08-19T08:06:17;21.20;99.90
54126;DHT22;40360;52.992;6.796;2022-08-19T08:09:03;21.30;99.90
54126;DHT22;40360;52.992;6.796;2022-08-19T08:12:23;21.40;99.90
54126;DHT22;40360;52.992;6.796;2022-08-19T08:14:53;21.60;99.90
54126;DHT22;40360;52.992;6.796;2022-08-19T08:17:23;21.80;99.90
54126;DHT22;40360;52.992;6.796;2022-08-19T08:19:50;21.90;99.90
54126;DHT22;40360;52.992;6.796;2022-08-19T08:22:19;22.50;99.90
54126;DHT22;40360;52.992;6.796;2022-08-19T08:25:11;22.50;99.90
54126;DHT22;40360;52.992;6.796;2022-08-19T08:27:39;22.20;99.90
54126;DHT22;40360;52.992;6.796;2022-08-19T08:30:19;22.50;99.90
54126;DHT22;40360;52.992;6.796;2022-08-19T08:32:45;22.40;99.90
54126;DHT22;40360;52.992;6.796;2022-08-19T08:35:14;22.50;99.90
54126;DHT22;40360;52.992;6.796;2022-08-19T08:37:40;22.60;99.90
54126;DHT22;40360;52.992;6.796;2022-08-19T08:40:13;22.70;99.90
54126;DHT22;40360;52.992;6.796;2022-08-19T08:42:51;22.80;99.90
54126;DHT22;40360;52.992;6.796;2022-08-19T08:45:18;23.00;99.90
54126;DHT22;40360;52.992;6.796;2022-08-19T08:47:47;23.00;99.90
54126;DHT22;40360;52.992;6.796;2022-08-19T08:50:24;23.10;99.90
54126;DHT22;40360;52.992;6.796;2022-08-19T08:52:54;23.20;99.90
54126;DHT22;40360;52.992;6.796;2022-08-19T08:55:27;23.40;99.90
54126;DHT22;40360;52.992;6.796;2022-08-19T08:58:04;23.90;99.90
54126;DHT22;40360;52.992;6.796;2022-08-19T09:00:35;23.60;99.90
54126;DHT22;40360;52.992;6.796;2022-08-19T09:03:03;24.30;99.90
54126;DHT22;40360;52.992;6.796;2022-08-19T09:06:06;23.70;99.90
54126;DHT22;40360;52.992;6.796;2022-08-19T09:08:40;23.80;99.90
54126;DHT22;40360;52.992;6.796;2022-08-19T09:11:15;23.90;99.90
54126;DHT22;40360;52.992;6.796;2022-08-19T09:13:47;24.40;99.90
54126;DHT22;40360;52.992;6.796;2022-08-19T09:16:18;24.30;99.90
54126;DHT22;40360;52.992;6.796;2022-08-19T09:18:48;24.20;99.90
54126;DHT22;40360;52.992;6.796;2022-08-19T09:21:17;24.30;99.90
54126;DHT22;40360;52.992;6.796;2022-08-19T09:23:43;25.00;99.90
54126;DHT22;40360;52.992;6.796;2022-08-19T09:26:11;24.50;99.90
54126;DHT22;40360;52.992;6.796;2022-08-19T09:28:39;24.90;99.90
54126;DHT22;40360;52.992;6.796;2022-08-19T09:31:12;24.80;99.90
54126;DHT22;40360;52.992;6.796;2022-08-19T09:33:39;24.90;99.90
54126;DHT22;40360;52.992;6.796;2022-08-19T09:36:06;25.00;99.90
54126;DHT22;40360;52.992;6.796;2022-08-19T09:38:33;25.10;99.90
54126;DHT22;40360;52.992;6.796;2022-08-19T09:41:04;25.30;99.90
54126;DHT22;40360;52.992;6.796;2022-08-19T09:43:31;25.40;99.90
54126;DHT22;40360;52.992;6.796;2022-08-19T09:45:56;25.30;99.90
54126;DHT22;40360;52.992;6.796;2022-08-19T09:48:22;25.70;99.90
54126;DHT22;40360;52.992;6.796;2022-08-19T09:50:48;25.40;99.90
54126;DHT22;40360;52.992;6.796;2022-08-19T09:53:15;25.90;99.90
54126;DHT22;40360;52.992;6.796;2022-08-19T09:55:44;25.60;99.90
54126;DHT22;40360;52.992;6.796;2022-08-19T09:58:09;25.60;99.90
54126;DHT22;40360;52.992;6.796;2022-08-19T10:00:37;26.10;99.90
54126;DHT22;40360;52.992;6.796;2022-08-19T10:03:03;25.80;99.90
54126;DHT22;40360;52.992;6.796;2022-08-19T10:05:29;25.90;99.90
54126;DHT22;40360;52.992;6.796;2022-08-19T10:08:13;26.00;99.90
54126;DHT22;40360;52.992;6.796;2022-08-19T10:10:40;26.30;99.90
54126;DHT22;40360;52.992;6.796;2022-08-19T10:13:08;26.20;99.90
54126;DHT22;40360;52.992;6.796;2022-08-19T10:15:34;26.40;99.90
54126;DHT22;40360;52.992;6.796;2022-08-19T10:18:01;26.80;99.90
54126;DHT22;40360;52.992;6.796;2022-08-19T10:20:26;26.80;99.90
54126;DHT22;40360;52.992;6.796;2022-08-19T10:22:52;26.70;99.90
54126;DHT22;40360;52.992;6.796;2022-08-19T10:25:18;26.80;99.90
54126;DHT22;40360;52.992;6.796;2022-08-19T10:27:43;26.80;99.90
54126;DHT22;40360;52.992;6.796;2022-08-19T10:30:10;26.80;99.90
54126;DHT22;40360;52.992;6.796;2022-08-19T10:32:35;26.90;99.90
54126;DHT22;40360;52.992;6.796;2022-08-19T10:35:03;27.50;99.90
54126;DHT22;40360;52.992;6.796;2022-08-19T10:37:31;27.00;99.90
54126;DHT22;40360;52.992;6.796;2022-08-19T10:39:58;26.90;99.90
54126;DHT22;40360;52.992;6.796;2022-08-19T10:42:23;27.40;99.90
54126;DHT22;40360;52.992;6.796;2022-08-19T10:44:49;27.60;99.90
54126;DHT22;40360;52.992;6.796;2022-08-19T10:47:15;27.60;99.90
54126;DHT22;40360;52.992;6.796;2022-08-19T10:49:41;27.30;99.90
54126;DHT22;40360;52.992;6.796;2022-08-19T10:52:25;27.30;99.90
54126;DHT22;40360;52.992;6.796;2022-08-19T10:55:04;27.30;99.90
54126;DHT22;40360;52.992;6.796;2022-08-19T10:57:49;27.40;99.90
54126;DHT22;40360;52.992;6.796;2022-08-19T11:00:15;27.50;99.90
54126;DHT22;40360;52.992;6.796;2022-08-19T11:02:41;27.70;99.90
54126;DHT22;40360;52.992;6.796;2022-08-19T11:05:08;27.50;99.90
54126;DHT22;40360;52.992;6.796;2022-08-19T11:07:37;27.50;99.90
54126;DHT22;40360;52.992;6.796;2022-08-19T11:10:04;27.60;99.90
54126;DHT22;40360;52.992;6.796;2022-08-19T11:12:30;27.90;99.90
54126;DHT22;40360;52.992;6.796;2022-08-19T11:14:55;28.10;99.90
54126;DHT22;40360;52.992;6.796;2022-08-19T11:17:21;28.40;99.90
54126;DHT22;40360;52.992;6.796;2022-08-19T11:19:49;28.50;99.90
54126;DHT22;40360;52.992;6.796;2022-08-19T11:22:15;28.80;99.90
54126;DHT22;40360;52.992;6.796;2022-08-19T11:24:41;28.50;99.90
54126;DHT22;40360;52.992;6.796;2022-08-19T11:27:09;28.50;99.90
54126;DHT22;40360;52.992;6.796;2022-08-19T11:29:37;28.30;99.90
54126;DHT22;40360;52.992;6.796;2022-08-19T11:32:05;28.20;99.90
54126;DHT22;40360;52.992;6.796;2022-08-19T11:34:31;28.60;99.90
54126;DHT22;40360;52.992;6.796;2022-08-19T11:36:57;28.90;99.90
54126;DHT22;40360;52.992;6.796;2022-08-19T11:39:25;28.60;99.90
54126;DHT22;40360;52.992;6.796;2022-08-19T11:41:51;28.30;99.90
54126;DHT22;40360;52.992;6.796;2022-08-19T11:44:17;28.10;99.90
54126;DHT22;40360;52.992;6.796;2022-08-19T11:46:44;28.20;99.90
54126;DHT22;40360;52.992;6.796;2022-08-19T11:49:10;28.30;99.30
54126;DHT22;40360;52.992;6.796;2022-08-19T11:51:36;29.20;99.90
54126;DHT22;40360;52.992;6.796;2022-08-19T11:54:05;28.50;99.60
54126;DHT22;40360;52.992;6.796;2022-08-19T11:56:31;28.70;99.30
54126;DHT22;40360;52.992;6.796;2022-08-19T11:58:57;29.20;99.20
54126;DHT22;40360;52.992;6.796;2022-08-19T12:01:24;29.50;99.00
54126;DHT22;40360;52.992;6.796;2022-08-19T12:03:51;29.10;98.80
54126;DHT22;40360;52.992;6.796;2022-08-19T12:06:22;29.20;98.40
54126;DHT22;40360;52.992;6.796;2022-08-19T12:08:52;29.10;98.00
54126;DHT22;40360;52.992;6.796;2022-08-19T12:11:20;29.40;98.30
54126;DHT22;40360;52.992;6.796;2022-08-19T12:13:45;29.50;97.80
54126;DHT22;40360;52.992;6.796;2022-08-19T12:16:18;29.80;97.80
54126;DHT22;40360;52.992;6.796;2022-08-19T12:18:44;29.20;97.60
54126;DHT22;40360;52.992;6.796;2022-08-19T12:21:14;29.00;97.90
54126;DHT22;40360;52.992;6.796;2022-08-19T12:23:41;29.00;97.40
54126;DHT22;40360;52.992;6.796;2022-08-19T12:26:09;28.70;97.80
54126;DHT22;40360;52.992;6.796;2022-08-19T12:28:35;28.30;98.00
54126;DHT22;40360;52.992;6.796;2022-08-19T12:31:01;28.70;98.10
54126;DHT22;40360;52.992;6.796;2022-08-19T12:33:26;29.10;98.30
54126;DHT22;40360;52.992;6.796;2022-08-19T12:35:53;29.00;97.60
54126;DHT22;40360;52.992;6.796;2022-08-19T12:38:20;28.90;97.80
54126;DHT22;40360;52.992;6.796;2022-08-19T12:40:49;28.80;98.10
54126;DHT22;40360;52.992;6.796;2022-08-19T12:43:17;28.50;98.10
54126;DHT22;40360;52.992;6.796;2022-08-19T12:45:45;28.40;98.60
54126;DHT22;40360;52.992;6.796;2022-08-19T12:48:11;28.40;98.90
54126;DHT22;40360;52.992;6.796;2022-08-19T12:50:39;28.30;99.00
54126;DHT22;40360;52.992;6.796;2022-08-19T12:53:05;28.10;99.00
54126;DHT22;40360;52.992;6.796;2022-08-19T12:55:31;27.90;99.50
54126;DHT22;40360;52.992;6.796;2022-08-19T12:57:57;28.20;99.60
54126;DHT22;40360;52.992;6.796;2022-08-19T13:00:23;28.30;99.90
54126;DHT22;40360;52.992;6.796;2022-08-19T13:02:51;27.90;99.70
54126;DHT22;40360;52.992;6.796;2022-08-19T13:05:23;27.90;99.50
54126;DHT22;40360;52.992;6.796;2022-08-19T13:07:50;27.80;99.20
54126;DHT22;40360;52.992;6.796;2022-08-19T13:10:19;27.90;99.50
54126;DHT22;40360;52.992;6.796;2022-08-19T13:12:46;27.50;99.30
54126;DHT22;40360;52.992;6.796;2022-08-19T13:15:13;27.50;99.20
54126;DHT22;40360;52.992;6.796;2022-08-19T13:17:40;27.50;98.90
54126;DHT22;40360;52.992;6.796;2022-08-19T13:20:08;27.40;98.50
54126;DHT22;40360;52.992;6.796;2022-08-19T13:22:34;27.60;98.10
54126;DHT22;40360;52.992;6.796;2022-08-19T13:25:06;27.60;97.90
54126;DHT22;40360;52.992;6.796;2022-08-19T13:27:32;27.60;97.40
54126;DHT22;40360;52.992;6.796;2022-08-19T13:29:58;27.80;97.90
54126;DHT22;40360;52.992;6.796;2022-08-19T13:32:42;27.90;98.30
54126;DHT22;40360;52.992;6.796;2022-08-19T13:35:26;28.00;97.80
54126;DHT22;40360;52.992;6.796;2022-08-19T13:37:51;27.80;97.10
54126;DHT22;40360;52.992;6.796;2022-08-19T13:40:20;28.00;97.00
54126;DHT22;40360;52.992;6.796;2022-08-19T13:42:49;28.10;97.80
54126;DHT22;40360;52.992;6.796;2022-08-19T13:45:18;27.90;97.20
54126;DHT22;40360;52.992;6.796;2022-08-19T13:47:50;28.00;97.20
54126;DHT22;40360;52.992;6.796;2022-08-19T13:50:21;27.90;96.80
54126;DHT22;40360;52.992;6.796;2022-08-19T13:52:47;28.10;96.70
54126;DHT22;40360;52.992;6.796;2022-08-19T13:55:14;28.10;96.40
54126;DHT22;40360;52.992;6.796;2022-08-19T13:57:41;28.00;96.20
54126;DHT22;40360;52.992;6.796;2022-08-19T14:00:13;27.70;96.30
54126;DHT22;40360;52.992;6.796;2022-08-19T14:02:40;27.80;97.10
54126;DHT22;40360;52.992;6.796;2022-08-19T14:05:07;27.60;96.20
54126;DHT22;40360;52.992;6.796;2022-08-19T14:07:34;27.70;96.70
54126;DHT22;40360;52.992;6.796;2022-08-19T14:09:59;27.60;97.10
54126;DHT22;40360;52.992;6.796;2022-08-19T14:12:25;27.60;97.20
54126;DHT22;40360;52.992;6.796;2022-08-19T14:14:51;27.60;97.40
54126;DHT22;40360;52.992;6.796;2022-08-19T14:17:16;28.30;97.50
54126;DHT22;40360;52.992;6.796;2022-08-19T14:19:42;27.80;99.20
54126;DHT22;40360;52.992;6.796;2022-08-19T14:22:08;27.40;99.90
54126;DHT22;40360;52.992;6.796;2022-08-19T14:24:36;27.30;99.90
54126;DHT22;40360;52.992;6.796;2022-08-19T14:27:02;27.20;99.90
54126;DHT22;40360;52.992;6.796;2022-08-19T14:29:28;27.30;99.90
54126;DHT22;40360;52.992;6.796;2022-08-19T14:31:54;26.40;99.90
54126;DHT22;40360;52.992;6.796;2022-08-19T14:34:25;26.20;99.90
54126;DHT22;40360;52.992;6.796;2022-08-19T14:36:51;26.00;99.90
54126;DHT22;40360;52.992;6.796;2022-08-19T14:39:17;26.00;99.90
54126;DHT22;40360;52.992;6.796;2022-08-19T14:41:43;26.70;99.90
54126;DHT22;40360;52.992;6.796;2022-08-19T14:44:09;26.10;99.90
54126;DHT22;40360;52.992;6.796;2022-08-19T14:46:38;25.70;99.90
54126;DHT22;40360;52.992;6.796;2022-08-19T14:49:04;25.60;99.90
54126;DHT22;40360;52.992;6.796;2022-08-19T14:51:29;25.50;99.90
54126;DHT22;40360;52.992;6.796;2022-08-19T14:53:55;25.30;99.90
54126;DHT22;40360;52.992;6.796;2022-08-19T14:56:25;25.80;99.90
54126;DHT22;40360;52.992;6.796;2022-08-19T14:58:51;25.50;99.90
54126;DHT22;40360;52.992;6.796;2022-08-19T15:01:17;26.20;99.90
54126;DHT22;40360;52.992;6.796;2022-08-19T15:03:46;25.60;99.90
54126;DHT22;40360;52.992;6.796;2022-08-19T15:06:12;25.80;99.90
54126;DHT22;40360;52.992;6.796;2022-08-19T15:08:39;25.40;99.90
54126;DHT22;40360;52.992;6.796;2022-08-19T15:11:11;25.80;99.90
54126;DHT22;40360;52.992;6.796;2022-08-19T15:13:38;26.20;99.90
54126;DHT22;40360;52.992;6.796;2022-08-19T15:16:05;25.50;99.90
54126;DHT22;40360;52.992;6.796;2022-08-19T15:18:30;25.50;99.90
54126;DHT22;40360;52.992;6.796;2022-08-19T15:20:57;25.50;99.90
54126;DHT22;40360;52.992;6.796;2022-08-19T15:23:23;25.50;99.90
54126;DHT22;40360;52.992;6.796;2022-08-19T15:25:49;25.30;99.90
54126;DHT22;40360;52.992;6.796;2022-08-19T15:28:18;25.40;99.90
54126;DHT22;40360;52.992;6.796;2022-08-19T15:30:44;25.40;99.90
54126;DHT22;40360;52.992;6.796;2022-08-19T15:33:10;25.40;99.90
54126;DHT22;40360;52.992;6.796;2022-08-19T15:35:40;25.20;99.90
54126;DHT22;40360;52.992;6.796;2022-08-19T15:38:06;25.20;99.90
54126;DHT22;40360;52.992;6.796;2022-08-19T15:40:32;25.00;99.90
54126;DHT22;40360;52.992;6.796;2022-08-19T15:42:58;25.30;99.90
54126;DHT22;40360;52.992;6.796;2022-08-19T15:45:24;25.20;99.90
54126;DHT22;40360;52.992;6.796;2022-08-19T15:47:57;26.00;99.90
54126;DHT22;40360;52.992;6.796;2022-08-19T15:50:23;26.40;99.90
54126;DHT22;40360;52.992;6.796;2022-08-19T15:52:50;27.10;99.90